Peebles, Ohio
Current Conditions -  °F | °C
As of 8:15 PM on Saturday 25 Oct 2014 (Local Time) from KFGX Reporting Station
Clear Clear  
Wind Chill: 60°   Ceiling: Unl
Heat Index: 60°   Visibility: 10mi
Dew Point: 56°   Wind: 6mph
Humidity: 87%   Direction: 230°SW
Pressure: 29.95"   Gusts: NA
Location:  38.95°N, 83.41°W
Report Text: KFGX 260015Z AUTO 23005KT 10SM CLR 16/14 A2995 RMK AO2 T01580136
Loading
Personal Weather Stations






























Interactive Weather Map
Tropical Storm Tracking
New forecast layout! Learn more

10-Day Weather Forecast

Advertisements
Track Severe Weather on mobile